sensor_id;sensor_type;location;lat;lon;timestamp;temperature;humidity
46720;DHT22;32452;51.382;-0.002;2023-04-01T00:02:18;10.90;99.90
46720;DHT22;32452;51.382;-0.002;2023-04-01T00:05:04;10.90;99.90
46720;DHT22;32452;51.382;-0.002;2023-04-01T00:07:51;10.90;99.90
46720;DHT22;32452;51.382;-0.002;2023-04-01T00:10:37;10.90;99.90
46720;DHT22;32452;51.382;-0.002;2023-04-01T00:13:23;10.90;99.90
46720;DHT22;32452;51.382;-0.002;2023-04-01T00:16:11;10.90;99.90
46720;DHT22;32452;51.382;-0.002;2023-04-01T00:19:06;10.90;99.90
46720;DHT22;32452;51.382;-0.002;2023-04-01T00:21:52;10.90;99.90
46720;DHT22;32452;51.382;-0.002;2023-04-01T00:24:38;10.90;99.90
46720;DHT22;32452;51.382;-0.002;2023-04-01T00:27:23;10.80;99.90
46720;DHT22;32452;51.382;-0.002;2023-04-01T00:30:10;10.80;99.90
46720;DHT22;32452;51.382;-0.002;2023-04-01T00:32:56;10.80;99.90
46720;DHT22;32452;51.382;-0.002;2023-04-01T00:35:41;10.80;99.90
46720;DHT22;32452;51.382;-0.002;2023-04-01T00:38:27;10.80;99.90
46720;DHT22;32452;51.382;-0.002;2023-04-01T00:41:14;10.80;99.90
46720;DHT22;32452;51.382;-0.002;2023-04-01T00:47:04;10.80;99.90
46720;DHT22;32452;51.382;-0.002;2023-04-01T00:49:52;10.80;99.90
46720;DHT22;32452;51.382;-0.002;2023-04-01T00:52:37;10.80;99.90
46720;DHT22;32452;51.382;-0.002;2023-04-01T00:55:23;10.80;99.90
46720;DHT22;32452;51.382;-0.002;2023-04-01T00:58:14;10.80;99.90
46720;DHT22;32452;51.382;-0.002;2023-04-01T01:01:01;10.80;99.90
46720;DHT22;32452;51.382;-0.002;2023-04-01T01:03:47;10.80;99.90
46720;DHT22;32452;51.382;-0.002;2023-04-01T01:09:36;10.70;99.90
46720;DHT22;32452;51.382;-0.002;2023-04-01T01:12:28;10.70;99.90
46720;DHT22;32452;51.382;-0.002;2023-04-01T01:15:37;10.70;99.90
46720;DHT22;32452;51.382;-0.002;2023-04-01T01:18:58;10.70;99.90
46720;DHT22;32452;51.382;-0.002;2023-04-01T01:37:12;10.70;99.90
46720;DHT22;32452;51.382;-0.002;2023-04-01T01:40:05;10.70;99.90
46720;DHT22;32452;51.382;-0.002;2023-04-01T01:42:55;10.70;99.90
46720;DHT22;32452;51.382;-0.002;2023-04-01T01:45:46;10.70;99.90
46720;DHT22;32452;51.382;-0.002;2023-04-01T01:48:33;10.70;99.90
46720;DHT22;32452;51.382;-0.002;2023-04-01T01:51:21;10.70;99.90
46720;DHT22;32452;51.382;-0.002;2023-04-01T01:54:07;10.70;99.90
46720;DHT22;32452;51.382;-0.002;2023-04-01T01:57:04;10.60;99.90
46720;DHT22;32452;51.382;-0.002;2023-04-01T01:59:55;10.60;99.90
46720;DHT22;32452;51.382;-0.002;2023-04-01T02:02:44;10.60;99.90
46720;DHT22;32452;51.382;-0.002;2023-04-01T02:05:31;10.60;99.90
46720;DHT22;32452;51.382;-0.002;2023-04-01T02:08:55;10.60;99.90
46720;DHT22;32452;51.382;-0.002;2023-04-01T02:11:59;10.50;99.90
46720;DHT22;32452;51.382;-0.002;2023-04-01T02:17:51;10.50;99.90
46720;DHT22;32452;51.382;-0.002;2023-04-01T02:20:38;10.50;99.90
46720;DHT22;32452;51.382;-0.002;2023-04-01T02:23:25;10.40;99.90
46720;DHT22;32452;51.382;-0.002;2023-04-01T02:26:13;10.40;99.90
46720;DHT22;32452;51.382;-0.002;2023-04-01T02:29:01;10.40;99.90
46720;DHT22;32452;51.382;-0.002;2023-04-01T02:31:48;10.40;99.90
46720;DHT22;32452;51.382;-0.002;2023-04-01T02:34:35;10.40;99.90
46720;DHT22;32452;51.382;-0.002;2023-04-01T02:37:21;10.40;99.90
46720;DHT22;32452;51.382;-0.002;2023-04-01T02:40:07;10.30;99.90
46720;DHT22;32452;51.382;-0.002;2023-04-01T02:42:53;10.30;99.90
46720;DHT22;32452;51.382;-0.002;2023-04-01T02:45:39;10.30;99.90
46720;DHT22;32452;51.382;-0.002;2023-04-01T02:48:24;10.30;99.90
46720;DHT22;32452;51.382;-0.002;2023-04-01T02:51:10;10.30;99.90
46720;DHT22;32452;51.382;-0.002;2023-04-01T02:53:55;10.30;99.90
46720;DHT22;32452;51.382;-0.002;2023-04-01T02:56:41;10.30;99.90
46720;DHT22;32452;51.382;-0.002;2023-04-01T02:59:27;10.30;99.90
46720;DHT22;32452;51.382;-0.002;2023-04-01T03:02:12;10.30;99.90
46720;DHT22;32452;51.382;-0.002;2023-04-01T03:04:58;10.30;99.90
46720;DHT22;32452;51.382;-0.002;2023-04-01T03:07:44;10.30;99.90
46720;DHT22;32452;51.382;-0.002;2023-04-01T03:10:30;10.30;99.90
46720;DHT22;32452;51.382;-0.002;2023-04-01T03:13:15;10.30;99.90
46720;DHT22;32452;51.382;-0.002;2023-04-01T03:16:01;10.30;99.90
46720;DHT22;32452;51.382;-0.002;2023-04-01T03:18:47;10.30;99.90
46720;DHT22;32452;51.382;-0.002;2023-04-01T03:21:35;10.30;99.90
46720;DHT22;32452;51.382;-0.002;2023-04-01T03:24:20;10.30;99.90
46720;DHT22;32452;51.382;-0.002;2023-04-01T03:27:06;10.20;99.90
46720;DHT22;32452;51.382;-0.002;2023-04-01T03:29:51;10.20;99.90
46720;DHT22;32452;51.382;-0.002;2023-04-01T03:32:37;10.20;99.90
46720;DHT22;32452;51.382;-0.002;2023-04-01T03:35:23;10.20;99.90
46720;DHT22;32452;51.382;-0.002;2023-04-01T03:38:08;10.20;99.90
46720;DHT22;32452;51.382;-0.002;2023-04-01T03:40:54;10.20;99.90
46720;DHT22;32452;51.382;-0.002;2023-04-01T03:43:40;10.20;99.90
46720;DHT22;32452;51.382;-0.002;2023-04-01T03:46:25;10.20;99.90
46720;DHT22;32452;51.382;-0.002;2023-04-01T03:49:11;10.20;99.90
46720;DHT22;32452;51.382;-0.002;2023-04-01T03:51:57;10.20;99.90
46720;DHT22;32452;51.382;-0.002;2023-04-01T03:54:43;10.20;99.90
46720;DHT22;32452;51.382;-0.002;2023-04-01T03:57:30;10.20;99.90
46720;DHT22;32452;51.382;-0.002;2023-04-01T04:00:16;10.20;99.90
46720;DHT22;32452;51.382;-0.002;2023-04-01T04:03:03;10.10;99.90
46720;DHT22;32452;51.382;-0.002;2023-04-01T04:05:49;10.10;99.90
46720;DHT22;32452;51.382;-0.002;2023-04-01T04:08:35;10.10;99.90
46720;DHT22;32452;51.382;-0.002;2023-04-01T04:11:21;10.20;99.90
46720;DHT22;32452;51.382;-0.002;2023-04-01T04:14:07;10.10;99.90
46720;DHT22;32452;51.382;-0.002;2023-04-01T04:16:53;10.20;99.90
46720;DHT22;32452;51.382;-0.002;2023-04-01T04:19:38;10.20;99.90
46720;DHT22;32452;51.382;-0.002;2023-04-01T04:22:24;10.20;99.90
46720;DHT22;32452;51.382;-0.002;2023-04-01T04:25:09;10.20;99.90
46720;DHT22;32452;51.382;-0.002;2023-04-01T04:27:55;10.20;99.90
46720;DHT22;32452;51.382;-0.002;2023-04-01T04:30:41;10.20;99.90
46720;DHT22;32452;51.382;-0.002;2023-04-01T04:33:26;10.20;99.90
46720;DHT22;32452;51.382;-0.002;2023-04-01T04:36:12;10.10;99.90
46720;DHT22;32452;51.382;-0.002;2023-04-01T04:38:58;10.10;99.90
46720;DHT22;32452;51.382;-0.002;2023-04-01T04:41:47;10.10;99.90
46720;DHT22;32452;51.382;-0.002;2023-04-01T04:44:33;10.10;99.90
46720;DHT22;32452;51.382;-0.002;2023-04-01T04:47:19;10.00;99.90
46720;DHT22;32452;51.382;-0.002;2023-04-01T04:50:05;10.10;99.90
46720;DHT22;32452;51.382;-0.002;2023-04-01T04:52:51;10.10;99.90
46720;DHT22;32452;51.382;-0.002;2023-04-01T04:55:36;10.00;99.90
46720;DHT22;32452;51.382;-0.002;2023-04-01T04:58:22;10.00;99.90
46720;DHT22;32452;51.382;-0.002;2023-04-01T05:01:10;10.00;99.90
46720;DHT22;32452;51.382;-0.002;2023-04-01T05:03:56;10.00;99.90
46720;DHT22;32452;51.382;-0.002;2023-04-01T05:06:43;10.00;99.90
46720;DHT22;32452;51.382;-0.002;2023-04-01T05:09:30;10.00;99.90
46720;DHT22;32452;51.382;-0.002;2023-04-01T05:12:16;10.00;99.90
46720;DHT22;32452;51.382;-0.002;2023-04-01T05:15:04;10.00;99.90
46720;DHT22;32452;51.382;-0.002;2023-04-01T05:17:50;10.00;99.90
46720;DHT22;32452;51.382;-0.002;2023-04-01T05:20:36;10.00;99.90
46720;DHT22;32452;51.382;-0.002;2023-04-01T05:23:22;10.00;99.90
46720;DHT22;32452;51.382;-0.002;2023-04-01T05:26:10;10.00;99.90
46720;DHT22;32452;51.382;-0.002;2023-04-01T05:28:56;10.00;99.90
46720;DHT22;32452;51.382;-0.002;2023-04-01T05:31:41;10.00;99.90
46720;DHT22;32452;51.382;-0.002;2023-04-01T05:34:27;10.00;99.90
46720;DHT22;32452;51.382;-0.002;2023-04-01T05:37:12;10.00;99.90
46720;DHT22;32452;51.382;-0.002;2023-04-01T05:39:58;10.00;99.90
46720;DHT22;32452;51.382;-0.002;2023-04-01T05:42:44;10.00;99.90
46720;DHT22;32452;51.382;-0.002;2023-04-01T05:45:30;10.00;99.90
46720;DHT22;32452;51.382;-0.002;2023-04-01T05:48:16;10.00;99.90
46720;DHT22;32452;51.382;-0.002;2023-04-01T05:51:03;10.00;99.90
46720;DHT22;32452;51.382;-0.002;2023-04-01T05:53:49;10.00;99.90
46720;DHT22;32452;51.382;-0.002;2023-04-01T05:56:35;10.00;99.90
46720;DHT22;32452;51.382;-0.002;2023-04-01T05:59:20;10.00;99.90
46720;DHT22;32452;51.382;-0.002;2023-04-01T06:02:07;10.00;99.90
46720;DHT22;32452;51.382;-0.002;2023-04-01T06:05:11;10.00;99.90
46720;DHT22;32452;51.382;-0.002;2023-04-01T06:08:06;10.00;99.90
46720;DHT22;32452;51.382;-0.002;2023-04-01T06:14:24;9.90;99.90
46720;DHT22;32452;51.382;-0.002;2023-04-01T06:17:22;10.00;99.90
46720;DHT22;32452;51.382;-0.002;2023-04-01T06:23:23;9.90;99.90
46720;DHT22;32452;51.382;-0.002;2023-04-01T06:29:15;10.00;99.90
46720;DHT22;32452;51.382;-0.002;2023-04-01T06:38:52;10.00;99.90
46720;DHT22;32452;51.382;-0.002;2023-04-01T06:54:11;9.90;99.90
46720;DHT22;32452;51.382;-0.002;2023-04-01T06:57:16;10.00;99.90
46720;DHT22;32452;51.382;-0.002;2023-04-01T07:00:31;10.00;99.90
46720;DHT22;32452;51.382;-0.002;2023-04-01T07:03:40;10.00;99.90
46720;DHT22;32452;51.382;-0.002;2023-04-01T07:06:35;9.90;99.90
46720;DHT22;32452;51.382;-0.002;2023-04-01T07:09:34;9.90;99.90
46720;DHT22;32452;51.382;-0.002;2023-04-01T07:15:26;10.00;99.90
46720;DHT22;32452;51.382;-0.002;2023-04-01T07:18:30;10.00;99.90
46720;DHT22;32452;51.382;-0.002;2023-04-01T07:21:33;10.00;99.90
46720;DHT22;32452;51.382;-0.002;2023-04-01T07:24:36;10.10;99.90
46720;DHT22;32452;51.382;-0.002;2023-04-01T07:27:23;10.10;99.90
46720;DHT22;32452;51.382;-0.002;2023-04-01T07:30:17;10.10;99.90
46720;DHT22;32452;51.382;-0.002;2023-04-01T07:33:16;10.20;99.90
46720;DHT22;32452;51.382;-0.002;2023-04-01T07:36:24;10.30;99.90
46720;DHT22;32452;51.382;-0.002;2023-04-01T07:52:18;10.40;99.90
46720;DHT22;32452;51.382;-0.002;2023-04-01T07:55:23;10.40;99.90
46720;DHT22;32452;51.382;-0.002;2023-04-01T07:58:35;10.40;99.90
46720;DHT22;32452;51.382;-0.002;2023-04-01T08:01:49;10.30;99.90
46720;DHT22;32452;51.382;-0.002;2023-04-01T08:10:52;10.30;99.90
46720;DHT22;32452;51.382;-0.002;2023-04-01T08:31:57;10.30;99.90
46720;DHT22;32452;51.382;-0.002;2023-04-01T08:35:02;10.30;99.90
46720;DHT22;32452;51.382;-0.002;2023-04-01T08:37:53;10.40;99.90
46720;DHT22;32452;51.382;-0.002;2023-04-01T08:40:59;10.40;99.90
46720;DHT22;32452;51.382;-0.002;2023-04-01T08:57:04;10.50;99.90
46720;DHT22;32452;51.382;-0.002;2023-04-01T09:00:31;10.50;99.90
46720;DHT22;32452;51.382;-0.002;2023-04-01T09:12:39;10.70;99.90
46720;DHT22;32452;51.382;-0.002;2023-04-01T09:19:24;10.70;99.90
46720;DHT22;32452;51.382;-0.002;2023-04-01T09:41:06;11.10;99.90
46720;DHT22;32452;51.382;-0.002;2023-04-01T09:44:01;11.10;99.90
46720;DHT22;32452;51.382;-0.002;2023-04-01T09:56:19;11.10;99.90
46720;DHT22;32452;51.382;-0.002;2023-04-01T09:59:34;11.10;99.90
46720;DHT22;32452;51.382;-0.002;2023-04-01T10:06:10;11.00;99.90
46720;DHT22;32452;51.382;-0.002;2023-04-01T10:12:30;11.00;99.90
46720;DHT22;32452;51.382;-0.002;2023-04-01T10:37:10;11.20;99.90
46720;DHT22;32452;51.382;-0.002;2023-04-01T10:40:45;11.30;99.90
46720;DHT22;32452;51.382;-0.002;2023-04-01T10:59:52;11.40;99.90
46720;DHT22;32452;51.382;-0.002;2023-04-01T11:41:07;11.70;99.90
46720;DHT22;32452;51.382;-0.002;2023-04-01T11:53:34;11.50;99.90
46720;DHT22;32452;51.382;-0.002;2023-04-01T12:02:44;11.90;99.90
46720;DHT22;32452;51.382;-0.002;2023-04-01T12:05:41;12.50;99.90
46720;DHT22;32452;51.382;-0.002;2023-04-01T12:24:29;14.60;
46720;DHT22;32452;51.382;-0.002;2023-04-01T12:27:39;14.30;97.10
46720;DHT22;32452;51.382;-0.002;2023-04-01T12:52:11;13.00;96.30
46720;DHT22;32452;51.382;-0.002;2023-04-01T13:01:41;12.80;95.90
46720;DHT22;32452;51.382;-0.002;2023-04-01T13:17:22;13.10;95.70
46720;DHT22;32452;51.382;-0.002;2023-04-01T13:23:32;13.30;95.40
46720;DHT22;32452;51.382;-0.002;2023-04-01T13:26:42;13.40;95.40
46720;DHT22;32452;51.382;-0.002;2023-04-01T13:32:35;13.50;94.40
46720;DHT22;32452;51.382;-0.002;2023-04-01T13:45:02;13.20;93.90
46720;DHT22;32452;51.382;-0.002;2023-04-01T14:38:29;13.60;90.60
46720;DHT22;32452;51.382;-0.002;2023-04-01T14:44:15;13.40;90.10
46720;DHT22;32452;51.382;-0.002;2023-04-01T14:50:14;13.30;89.80
46720;DHT22;32452;51.382;-0.002;2023-04-01T14:53:28;13.30;90.00
46720;DHT22;32452;51.382;-0.002;2023-04-01T15:02:29;13.10;90.30
46720;DHT22;32452;51.382;-0.002;2023-04-01T15:11:26;12.80;90.40
46720;DHT22;32452;51.382;-0.002;2023-04-01T15:20:29;12.50;90.60
46720;DHT22;32452;51.382;-0.002;2023-04-01T15:45:01;12.20;90.80
46720;DHT22;32452;51.382;-0.002;2023-04-01T15:48:01;12.20;91.00
46720;DHT22;32452;51.382;-0.002;2023-04-01T15:51:19;12.10;91.10
46720;DHT22;32452;51.382;-0.002;2023-04-01T16:00:10;12.00;91.40
46720;DHT22;32452;51.382;-0.002;2023-04-01T16:13:11;11.80;92.20
46720;DHT22;32452;51.382;-0.002;2023-04-01T16:15:57;11.70;92.20
46720;DHT22;32452;51.382;-0.002;2023-04-01T16:22:12;11.60;92.20
46720;DHT22;32452;51.382;-0.002;2023-04-01T16:28:07;11.50;92.30
46720;DHT22;32452;51.382;-0.002;2023-04-01T16:33:57;11.50;92.60
46720;DHT22;32452;51.382;-0.002;2023-04-01T16:39:44;11.40;93.00
46720;DHT22;32452;51.382;-0.002;2023-04-01T16:42:43;11.30;93.10
46720;DHT22;32452;51.382;-0.002;2023-04-01T16:45:54;11.30;93.20
46720;DHT22;32452;51.382;-0.002;2023-04-01T16:52:15;11.20;93.40
46720;DHT22;32452;51.382;-0.002;2023-04-01T16:55:14;11.20;93.40
46720;DHT22;32452;51.382;-0.002;2023-04-01T16:58:01;11.20;93.50
46720;DHT22;32452;51.382;-0.002;2023-04-01T17:00:58;11.20;93.80
46720;DHT22;32452;51.382;-0.002;2023-04-01T17:03:47;11.20;93.90
46720;DHT22;32452;51.382;-0.002;2023-04-01T17:06:49;11.10;94.00
46720;DHT22;32452;51.382;-0.002;2023-04-01T17:09:42;11.10;93.90
46720;DHT22;32452;51.382;-0.002;2023-04-01T17:16:01;11.00;93.70
46720;DHT22;32452;51.382;-0.002;2023-04-01T17:22:12;11.00;93.70
46720;DHT22;32452;51.382;-0.002;2023-04-01T17:27:58;10.90;93.80
46720;DHT22;32452;51.382;-0.002;2023-04-01T17:34:02;10.90;93.70
46720;DHT22;32452;51.382;-0.002;2023-04-01T17:37:25;10.90;93.60
46720;DHT22;32452;51.382;-0.002;2023-04-01T17:43:36;10.90;93.40
46720;DHT22;32452;51.382;-0.002;2023-04-01T17:46:31;10.90;93.40
46720;DHT22;32452;51.382;-0.002;2023-04-01T17:55:29;10.80;93.00
46720;DHT22;32452;51.382;-0.002;2023-04-01T17:58:28;10.80;93.00
46720;DHT22;32452;51.382;-0.002;2023-04-01T18:04:46;10.80;93.00
46720;DHT22;32452;51.382;-0.002;2023-04-01T18:20:07;10.80;93.30
46720;DHT22;32452;51.382;-0.002;2023-04-01T18:23:27;10.80;93.30
46720;DHT22;32452;51.382;-0.002;2023-04-01T18:26:22;10.80;93.30
46720;DHT22;32452;51.382;-0.002;2023-04-01T18:35:21;10.80;93.10
46720;DHT22;32452;51.382;-0.002;2023-04-01T18:38:14;10.80;93.10
46720;DHT22;32452;51.382;-0.002;2023-04-01T18:41:13;10.80;93.10
46720;DHT22;32452;51.382;-0.002;2023-04-01T18:50:30;10.70;93.60
46720;DHT22;32452;51.382;-0.002;2023-04-01T18:56:30;10.70;93.40
46720;DHT22;32452;51.382;-0.002;2023-04-01T19:00:14;10.60;93.50
46720;DHT22;32452;51.382;-0.002;2023-04-01T19:02:48;10.60;93.70
46720;DHT22;32452;51.382;-0.002;2023-04-01T19:05:40;10.60;93.90
46720;DHT22;32452;51.382;-0.002;2023-04-01T19:08:34;10.60;94.00
46720;DHT22;32452;51.382;-0.002;2023-04-01T19:11:39;10.60;94.20
46720;DHT22;32452;51.382;-0.002;2023-04-01T19:21:27;10.50;95.00
46720;DHT22;32452;51.382;-0.002;2023-04-01T19:27:29;10.50;95.60
46720;DHT22;32452;51.382;-0.002;2023-04-01T19:30:26;10.50;95.90
46720;DHT22;32452;51.382;-0.002;2023-04-01T19:33:22;10.50;96.10
46720;DHT22;32452;51.382;-0.002;2023-04-01T19:42:35;10.40;97.00
46720;DHT22;32452;51.382;-0.002;2023-04-01T19:51:50;10.30;98.00
46720;DHT22;32452;51.382;-0.002;2023-04-01T19:58:05;10.30;99.00
46720;DHT22;32452;51.382;-0.002;2023-04-01T20:00:59;10.20;99.40
46720;DHT22;32452;51.382;-0.002;2023-04-01T20:03:50;10.10;99.70
46720;DHT22;32452;51.382;-0.002;2023-04-01T20:15:41;9.90;99.90
46720;DHT22;32452;51.382;-0.002;2023-04-01T20:18:58;9.90;99.90
46720;DHT22;32452;51.382;-0.002;2023-04-01T20:21:47;9.80;99.90
46720;DHT22;32452;51.382;-0.002;2023-04-01T20:24:45;9.80;99.90
46720;DHT22;32452;51.382;-0.002;2023-04-01T20:27:43;9.80;99.90
46720;DHT22;32452;51.382;-0.002;2023-04-01T20:30:53;9.80;99.90
46720;DHT22;32452;51.382;-0.002;2023-04-01T20:34:18;9.70;99.90
46720;DHT22;32452;51.382;-0.002;2023-04-01T20:50:19;9.80;99.90
46720;DHT22;32452;51.382;-0.002;2023-04-01T20:59:35;9.70;99.90
46720;DHT22;32452;51.382;-0.002;2023-04-01T21:11:25;9.70;99.90
46720;DHT22;32452;51.382;-0.002;2023-04-01T21:27:26;9.60;99.90
46720;DHT22;32452;51.382;-0.002;2023-04-01T21:36:38;9.60;99.90
46720;DHT22;32452;51.382;-0.002;2023-04-01T21:43:18;9.60;99.90
46720;DHT22;32452;51.382;-0.002;2023-04-01T21:59:21;9.40;99.90
46720;DHT22;32452;51.382;-0.002;2023-04-01T22:17:35;9.50;99.90
46720;DHT22;32452;51.382;-0.002;2023-04-01T22:20:56;9.50;99.90
46720;DHT22;32452;51.382;-0.002;2023-04-01T22:33:25;9.40;99.90
46720;DHT22;32452;51.382;-0.002;2023-04-01T22:45:44;9.40;99.90
46720;DHT22;32452;51.382;-0.002;2023-04-01T22:54:53;9.30;99.90
46720;DHT22;32452;51.382;-0.002;2023-04-01T22:58:09;9.30;99.90
46720;DHT22;32452;51.382;-0.002;2023-04-01T23:01:20;9.30;99.90
46720;DHT22;32452;51.382;-0.002;2023-04-01T23:04:09;9.30;99.90
46720;DHT22;32452;51.382;-0.002;2023-04-01T23:07:04;9.30;99.90
46720;DHT22;32452;51.382;-0.002;2023-04-01T23:09:53;9.30;99.90
46720;DHT22;32452;51.382;-0.002;2023-04-01T23:12:40;9.30;99.90
46720;DHT22;32452;51.382;-0.002;2023-04-01T23:15:28;9.20;99.90
46720;DHT22;32452;51.382;-0.002;2023-04-01T23:21:31;9.20;99.90
46720;DHT22;32452;51.382;-0.002;2023-04-01T23:24:28;9.20;99.90
46720;DHT22;32452;51.382;-0.002;2023-04-01T23:27:27;9.20;99.90
46720;DHT22;32452;51.382;-0.002;2023-04-01T23:33:30;9.20;99.90
46720;DHT22;32452;51.382;-0.002;2023-04-01T23:36:16;9.20;99.90
46720;DHT22;32452;51.382;-0.002;2023-04-01T23:39:09;9.20;99.90
46720;DHT22;32452;51.382;-0.002;2023-04-01T23:45:13;9.10;99.90
46720;DHT22;32452;51.382;-0.002;2023-04-01T23:47:59;9.10;99.90
46720;DHT22;32452;51.382;-0.002;2023-04-01T23:50:46;9.10;99.90
46720;DHT22;32452;51.382;-0.002;2023-04-01T23:53:34;9.10;99.90
46720;DHT22;32452;51.382;-0.002;2023-04-01T23:56:20;9.10;99.90
46720;DHT22;32452;51.382;-0.002;2023-04-01T23:59:14;9.10;99.90
